Arrow Rock, Missouri
Current Conditions -  °F | °C
As of 4:35 PM on Monday 26 Jan 2015 (Local Time) from KVER Reporting Station
Clear Clear  
Wind Chill: 12°   Ceiling: Unl
Heat Index: 12°   Visibility: 10mi
Dew Point:   Wind: 7mph
Humidity: 50%   Direction: 300°WNW
Pressure: 29.89"   Gusts: NA
Location:  39.07°N, 92.95°W
Report Text: KVER 262235Z AUTO 30006KT 10SM CLR 12/02 A2989 RMK AO2 T01180017
Loading
Personal Weather Stations






























Interactive Weather Map New forecast layout! Learn more

10-Day Weather Forecast

Advertisements
Track Severe Weather on mobile